createdAt,value
2019-01-05T00:00:05.353Z,1000.88
2019-01-05T00:01:05.504Z,1000.87
2019-01-05T00:02:05.647Z,1000.85
2019-01-05T00:03:05.789Z,1000.88
2019-01-05T00:04:05.935Z,1000.88
2019-01-05T00:05:06.080Z,1000.90
2019-01-05T00:06:06.224Z,1000.85
2019-01-05T00:07:06.367Z,1000.85
2019-01-05T00:08:06.514Z,1000.89
2019-01-05T00:09:06.657Z,1000.91
2019-01-05T00:10:06.802Z,1000.86
2019-01-05T00:11:06.946Z,1000.89
2019-01-05T00:12:07.091Z,1000.92
2019-01-05T00:13:07.238Z,1000.88
2019-01-05T00:14:07.382Z,1000.85
2019-01-05T00:15:07.525Z,1000.85
2019-01-05T00:16:07.671Z,1000.86
2019-01-05T00:17:07.816Z,1000.82
2019-01-05T00:18:07.961Z,1000.83
2019-01-05T00:19:08.107Z,1000.79
2019-01-05T00:20:08.249Z,1000.77
2019-01-05T00:21:08.395Z,1000.75
2019-01-05T00:22:08.568Z,1000.80
2019-01-05T00:23:08.714Z,1000.76
2019-01-05T00:24:08.856Z,1000.74
2019-01-05T00:25:08.999Z,1000.77
2019-01-05T00:26:09.143Z,1000.72
2019-01-05T00:27:09.286Z,1000.67
2019-01-05T00:28:09.432Z,1000.70
2019-01-05T00:29:09.575Z,1000.70
2019-01-05T00:30:09.719Z,1000.65
2019-01-05T00:31:09.860Z,1000.70
2019-01-05T00:32:10.004Z,1000.67
2019-01-05T00:33:10.149Z,1000.70
2019-01-05T00:34:10.297Z,1000.67
2019-01-05T00:35:10.438Z,1000.60
2019-01-05T00:36:10.618Z,1000.59
2019-01-05T00:37:10.726Z,1000.65
2019-01-05T00:38:10.869Z,1000.55
2019-01-05T00:39:11.011Z,1000.58
2019-01-05T00:40:16.938Z,1000.62
2019-01-05T00:41:11.303Z,1000.60
2019-01-05T00:42:11.444Z,1000.62
2019-01-05T00:43:11.589Z,1000.61
2019-01-05T00:44:11.732Z,1000.56
2019-01-05T00:45:11.879Z,1000.58
2019-01-05T00:46:12.019Z,1000.57
2019-01-05T00:47:12.166Z,1000.56
2019-01-05T00:48:12.310Z,1000.54
2019-01-05T00:49:12.453Z,1000.53
2019-01-05T00:50:12.597Z,1000.52
2019-01-05T00:51:12.742Z,1000.50
2019-01-05T00:52:12.883Z,1000.52
2019-01-05T00:53:13.031Z,1000.50
2019-01-05T00:54:13.173Z,1000.51
2019-01-05T00:55:13.319Z,1000.51
2019-01-05T00:56:13.462Z,1000.56
2019-01-05T00:57:13.609Z,1000.52
2019-01-05T00:58:13.752Z,1000.55
2019-01-05T00:59:13.899Z,1000.53
2019-01-05T01:00:14.037Z,1000.60
2019-01-05T01:01:14.182Z,1000.58
2019-01-05T01:02:14.324Z,1000.61
2019-01-05T01:03:14.470Z,1000.60
2019-01-05T01:04:14.615Z,1000.56
2019-01-05T01:05:14.757Z,1000.53
2019-01-05T01:06:14.899Z,1000.50
2019-01-05T01:07:15.042Z,1000.52
2019-01-05T01:08:15.187Z,1000.49
2019-01-05T01:09:15.330Z,1000.43
2019-01-05T01:10:15.474Z,1000.48
2019-01-05T01:11:15.620Z,1000.49
2019-01-05T01:12:15.765Z,1000.50
2019-01-05T01:13:15.907Z,1000.50
2019-01-05T01:14:16.052Z,1000.49
2019-01-05T01:15:16.195Z,1000.47
2019-01-05T01:16:16.339Z,1000.50
2019-01-05T01:17:16.485Z,1000.52
2019-01-05T01:18:16.627Z,1000.52
2019-01-05T01:19:16.772Z,1000.50
2019-01-05T01:20:16.919Z,1000.54
2019-01-05T01:21:17.061Z,1000.51
2019-01-05T01:22:17.212Z,1000.50
2019-01-05T01:23:17.348Z,1000.49
2019-01-05T01:24:17.491Z,1000.45
2019-01-05T01:25:17.636Z,1000.51
2019-01-05T01:26:17.781Z,1000.50
2019-01-05T01:27:17.929Z,1000.53
2019-01-05T01:28:18.067Z,1000.51
2019-01-05T01:29:18.214Z,1000.48
2019-01-05T01:30:18.357Z,1000.51
2019-01-05T01:31:18.507Z,1000.48
2019-01-05T01:32:18.643Z,1000.49
2019-01-05T01:33:18.789Z,1000.47
2019-01-05T01:34:18.931Z,1000.48
2019-01-05T01:35:19.080Z,1000.47
2019-01-05T01:36:19.221Z,1000.49
2019-01-05T01:37:19.365Z,1000.49
2019-01-05T01:38:19.512Z,1000.53
2019-01-05T01:39:19.653Z,1000.50
2019-01-05T01:40:19.797Z,1000.51
2019-01-05T01:41:19.939Z,1000.51
2019-01-05T01:42:20.085Z,1000.48
2019-01-05T01:43:20.228Z,1000.46
2019-01-05T01:44:20.371Z,1000.48
2019-01-05T01:45:20.519Z,1000.41
2019-01-05T01:46:20.660Z,1000.45
2019-01-05T01:47:20.805Z,1000.42
2019-01-05T01:48:20.948Z,1000.39
2019-01-05T01:49:21.091Z,1000.38
2019-01-05T01:50:21.237Z,1000.40
2019-01-05T01:51:21.382Z,1000.38
2019-01-05T01:52:21.525Z,1000.37
2019-01-05T01:53:21.666Z,1000.33
2019-01-05T01:54:21.811Z,1000.32
2019-01-05T01:55:21.952Z,1000.27
2019-01-05T01:56:22.101Z,1000.23
2019-01-05T01:57:22.241Z,1000.22
2019-01-05T01:58:22.385Z,1000.20
2019-01-05T01:59:22.529Z,1000.10
2019-01-05T02:00:22.672Z,1000.12
2019-01-05T02:01:22.816Z,1000.11
2019-01-05T02:02:22.961Z,1000.05
2019-01-05T02:03:23.107Z,1000.10
2019-01-05T02:04:23.250Z,1000.02
2019-01-05T02:05:23.395Z,1000.07
2019-01-05T02:06:23.541Z,1000.08
2019-01-05T02:07:23.684Z,1000.07
2019-01-05T02:08:23.828Z,1000.01
2019-01-05T02:09:23.972Z,999.99
2019-01-05T02:10:24.115Z,999.98
2019-01-05T02:11:24.259Z,999.95
2019-01-05T02:12:24.405Z,999.93
2019-01-05T02:13:24.551Z,999.84
2019-01-05T02:14:24.692Z,999.87
2019-01-05T02:15:24.834Z,999.83
2019-01-05T02:16:24.979Z,999.80
2019-01-05T02:17:25.122Z,999.77
2019-01-05T02:18:25.270Z,999.74
2019-01-05T02:19:25.413Z,999.76
2019-01-05T02:20:25.557Z,999.72
2019-01-05T02:21:25.701Z,999.73
2019-01-05T02:22:25.845Z,999.69
2019-01-05T02:23:25.991Z,999.71
2019-01-05T02:24:26.135Z,999.65
2019-01-05T02:25:26.282Z,999.66
2019-01-05T02:26:26.421Z,999.60
2019-01-05T02:27:26.566Z,999.63
2019-01-05T02:28:26.710Z,999.66
2019-01-05T02:29:26.853Z,999.67
2019-01-05T02:30:26.999Z,999.65
2019-01-05T02:31:27.140Z,999.64
2019-01-05T02:32:27.287Z,999.61
2019-01-05T02:33:27.431Z,999.59
2019-01-05T02:34:27.573Z,999.55
2019-01-05T02:35:27.724Z,999.56
2019-01-05T02:36:27.861Z,999.44
2019-01-05T02:37:28.003Z,999.44
2019-01-05T02:38:28.148Z,999.41
2019-01-05T02:39:28.297Z,999.26
2019-01-05T02:40:28.439Z,999.34
2019-01-05T02:41:28.580Z,999.30
2019-01-05T02:42:28.721Z,999.37
2019-01-05T02:43:28.869Z,999.30
2019-01-05T02:44:29.011Z,999.19
2019-01-05T02:45:29.162Z,999.27
2019-01-05T02:46:29.302Z,999.22
2019-01-05T02:47:29.447Z,999.25
2019-01-05T02:48:29.593Z,999.15
2019-01-05T02:49:29.734Z,999.18
2019-01-05T02:50:29.878Z,999.16
2019-01-05T02:51:30.023Z,999.20
2019-01-05T02:52:30.167Z,999.18
2019-01-05T02:53:30.309Z,999.14
2019-01-05T02:54:30.453Z,999.19
2019-01-05T02:55:30.596Z,999.14
2019-01-05T02:56:30.743Z,999.18
2019-01-05T02:57:30.885Z,999.15
2019-01-05T02:58:31.029Z,999.17
2019-01-05T02:59:31.172Z,999.15
2019-01-05T03:00:31.317Z,999.19
2019-01-05T03:01:31.461Z,999.09
2019-01-05T03:02:31.603Z,999.10
2019-01-05T03:03:31.748Z,999.07
2019-01-05T03:04:31.892Z,999.09
2019-01-05T03:05:32.036Z,999.00
2019-01-05T03:06:32.180Z,999.02
2019-01-05T03:07:32.326Z,999.01
2019-01-05T03:08:32.469Z,999.00
2019-01-05T03:09:32.613Z,999.02
2019-01-05T03:10:32.767Z,998.96
2019-01-05T03:11:32.902Z,998.95
2019-01-05T03:12:33.048Z,998.94
2019-01-05T03:13:33.194Z,998.89
2019-01-05T03:14:33.333Z,998.82
2019-01-05T03:15:33.480Z,998.86
2019-01-05T03:16:33.625Z,998.80
2019-01-05T03:17:33.770Z,998.81
2019-01-05T03:18:33.914Z,998.76
2019-01-05T03:19:34.059Z,998.76
2019-01-05T03:20:34.203Z,998.82
2019-01-05T03:21:34.350Z,998.74
2019-01-05T03:22:34.492Z,998.74
2019-01-05T03:23:34.637Z,998.73
2019-01-05T03:24:34.784Z,998.72
2019-01-05T03:25:34.926Z,998.63
2019-01-05T03:26:35.078Z,998.62
2019-01-05T03:27:35.214Z,998.61
2019-01-05T03:28:35.370Z,998.59
2019-01-05T03:29:35.500Z,998.54
2019-01-05T03:30:35.648Z,998.58
2019-01-05T03:31:35.789Z,998.55
2019-01-05T03:32:35.937Z,998.55
2019-01-05T03:33:36.076Z,998.50
2019-01-05T03:34:36.218Z,998.47
2019-01-05T03:35:36.363Z,998.42
2019-01-05T03:36:36.510Z,998.50
2019-01-05T03:37:36.653Z,998.27
2019-01-05T03:38:36.798Z,998.40
2019-01-05T03:39:36.943Z,998.36
2019-01-05T03:40:37.099Z,998.39
2019-01-05T03:41:37.237Z,998.32
2019-01-05T03:42:37.380Z,998.30
2019-01-05T03:43:37.521Z,998.30
2019-01-05T03:44:37.664Z,998.28
2019-01-05T03:45:37.807Z,998.26
2019-01-05T03:46:37.952Z,998.27
2019-01-05T03:47:38.098Z,998.31
2019-01-05T03:48:38.242Z,998.29
2019-01-05T03:49:38.386Z,998.31
2019-01-05T03:50:38.530Z,998.25
2019-01-05T03:51:38.706Z,998.24
2019-01-05T03:52:38.852Z,998.21
2019-01-05T03:53:38.997Z,998.24
2019-01-05T03:54:39.139Z,998.24
2019-01-05T03:55:39.286Z,998.27
2019-01-05T03:56:39.428Z,998.24
2019-01-05T03:57:39.584Z,998.21
2019-01-05T03:58:39.746Z,998.17
2019-01-05T03:59:39.891Z,998.21
2019-01-05T04:00:40.035Z,998.10
2019-01-05T04:01:40.180Z,998.11
2019-01-05T04:02:40.323Z,998.15
2019-01-05T04:03:40.471Z,998.12
2019-01-05T04:04:40.612Z,998.18
2019-01-05T04:05:40.757Z,998.03
2019-01-05T04:06:40.902Z,998.05
2019-01-05T04:07:41.043Z,998.06
2019-01-05T04:08:41.189Z,997.96
2019-01-05T04:09:41.337Z,998.00
2019-01-05T04:10:41.479Z,997.98
2019-01-05T04:11:41.622Z,997.87
2019-01-05T04:12:41.766Z,997.82
2019-01-05T04:13:41.912Z,997.88
2019-01-05T04:14:42.058Z,997.86
2019-01-05T04:15:42.203Z,997.84
2019-01-05T04:16:42.349Z,997.77
2019-01-05T04:17:42.491Z,997.77
2019-01-05T04:18:42.638Z,997.76
2019-01-05T04:19:42.782Z,997.80
2019-01-05T04:20:42.927Z,997.79
2019-01-05T04:21:43.072Z,997.75
2019-01-05T04:22:43.224Z,997.77
2019-01-05T04:23:43.368Z,997.77
2019-01-05T04:24:43.507Z,997.78
2019-01-05T04:25:43.648Z,997.79
2019-01-05T04:26:43.796Z,997.78
2019-01-05T04:27:43.936Z,997.69
2019-01-05T04:28:44.079Z,997.67
2019-01-05T04:29:44.224Z,997.70
2019-01-05T04:30:44.369Z,997.64
2019-01-05T04:31:44.513Z,997.59
2019-01-05T04:32:44.655Z,997.59
2019-01-05T04:33:44.800Z,997.54
2019-01-05T04:34:44.944Z,997.51
2019-01-05T04:35:45.089Z,997.52
2019-01-05T04:36:45.238Z,997.48
2019-01-05T04:37:45.383Z,997.52
2019-01-05T04:38:45.545Z,997.47
2019-01-05T04:39:45.701Z,997.49
2019-01-05T04:40:45.849Z,997.47
2019-01-05T04:41:45.990Z,997.40
2019-01-05T04:42:46.131Z,997.40
2019-01-05T04:43:46.276Z,997.38
2019-01-05T04:44:46.421Z,997.41
2019-01-05T04:45:46.566Z,997.34
2019-01-05T04:46:46.709Z,997.31
2019-01-05T04:47:46.853Z,997.34
2019-01-05T04:48:46.999Z,997.24
2019-01-05T04:49:47.146Z,997.18
2019-01-05T04:50:47.283Z,997.12
2019-01-05T04:51:47.428Z,997.15
2019-01-05T04:52:47.574Z,997.16
2019-01-05T04:53:47.720Z,997.11
2019-01-05T04:54:47.862Z,997.12
2019-01-05T04:55:48.005Z,997.15
2019-01-05T04:56:48.149Z,997.07
2019-01-05T04:57:48.293Z,997.08
2019-01-05T04:58:48.438Z,997.13
2019-01-05T04:59:48.581Z,996.96
2019-01-05T05:00:48.728Z,996.94
2019-01-05T05:01:48.884Z,996.91
2019-01-05T05:02:49.016Z,996.86
2019-01-05T05:03:49.159Z,996.85
2019-01-05T05:04:49.306Z,996.90
2019-01-05T05:05:49.452Z,996.77
2019-01-05T05:06:49.595Z,996.71
2019-01-05T05:07:49.736Z,996.71
2019-01-05T05:08:49.882Z,996.71
2019-01-05T05:09:50.025Z,996.79
2019-01-05T05:10:50.172Z,996.90
2019-01-05T05:11:50.313Z,996.90
2019-01-05T05:12:50.460Z,996.90
2019-01-05T05:13:50.604Z,996.94
2019-01-05T05:14:50.748Z,996.87
2019-01-05T05:15:50.894Z,996.94
2019-01-05T05:16:51.039Z,996.93
2019-01-05T05:17:51.182Z,996.91
2019-01-05T05:18:51.329Z,996.88
2019-01-05T05:19:51.472Z,996.86
2019-01-05T05:20:51.616Z,996.85
2019-01-05T05:21:51.761Z,996.85
2019-01-05T05:22:51.903Z,996.91
2019-01-05T05:23:52.049Z,996.85
2019-01-05T05:24:52.191Z,996.85
2019-01-05T05:25:52.338Z,996.84
2019-01-05T05:26:52.483Z,996.83
2019-01-05T05:27:52.627Z,996.85
2019-01-05T05:28:52.771Z,996.87
2019-01-05T05:29:52.915Z,996.89
2019-01-05T05:30:53.063Z,996.83
2019-01-05T05:31:53.211Z,996.78
2019-01-05T05:32:53.351Z,996.77
2019-01-05T05:33:53.495Z,996.68
2019-01-05T05:34:53.639Z,996.73
2019-01-05T05:35:53.785Z,996.72
2019-01-05T05:36:53.929Z,996.70
2019-01-05T05:37:54.074Z,996.68
2019-01-05T05:38:54.221Z,996.65
2019-01-05T05:39:54.367Z,996.64
2019-01-05T05:40:54.512Z,996.69
2019-01-05T05:41:54.657Z,996.65
2019-01-05T05:42:54.806Z,996.58
2019-01-05T05:43:54.947Z,996.61
2019-01-05T05:44:55.090Z,996.62
2019-01-05T05:45:55.234Z,996.46
2019-01-05T05:46:55.381Z,996.53
2019-01-05T05:47:55.528Z,996.52
2019-01-05T05:48:55.671Z,996.50
2019-01-05T05:49:55.817Z,996.50
2019-01-05T05:50:55.961Z,996.58
2019-01-05T05:51:56.109Z,996.53
2019-01-05T05:52:56.255Z,996.60
2019-01-05T05:53:56.444Z,996.50
2019-01-05T05:54:56.551Z,996.62
2019-01-05T05:55:56.682Z,996.67
2019-01-05T05:56:56.828Z,996.63
2019-01-05T05:57:56.972Z,996.64
2019-01-05T05:58:57.119Z,996.64
2019-01-05T05:59:57.263Z,996.62
2019-01-05T06:00:57.408Z,996.66
2019-01-05T06:01:57.552Z,996.59
2019-01-05T06:02:57.697Z,996.55
2019-01-05T06:03:57.841Z,996.62
2019-01-05T06:04:57.988Z,996.65
2019-01-05T06:05:58.132Z,996.69
2019-01-05T06:06:58.279Z,996.65
2019-01-05T06:07:58.425Z,996.71
2019-01-05T06:08:58.567Z,996.69
2019-01-05T06:09:58.711Z,996.71
2019-01-05T06:10:58.858Z,996.71
2019-01-05T06:11:59.002Z,996.69
2019-01-05T06:12:59.147Z,996.57
2019-01-05T06:13:59.290Z,996.56
2019-01-05T06:14:59.439Z,996.61
2019-01-05T06:15:59.583Z,996.55
2019-01-05T06:16:59.729Z,996.55
2019-01-05T06:17:59.873Z,996.58
2019-01-05T06:19:00.019Z,996.54
2019-01-05T06:20:00.236Z,996.54
2019-01-05T06:21:00.311Z,996.62
2019-01-05T06:22:00.473Z,996.53
2019-01-05T06:23:00.597Z,996.56
2019-01-05T06:24:00.742Z,996.56
2019-01-05T06:25:00.887Z,996.59
2019-01-05T06:26:01.031Z,996.63
2019-01-05T06:27:01.176Z,996.65
2019-01-05T06:28:01.321Z,996.66
2019-01-05T06:29:01.468Z,996.64
2019-01-05T06:30:01.616Z,996.67
2019-01-05T06:31:01.760Z,996.71
2019-01-05T06:32:01.913Z,996.72
2019-01-05T06:33:02.050Z,996.72
2019-01-05T06:34:02.194Z,996.70
2019-01-05T06:35:02.342Z,996.72
2019-01-05T06:36:02.483Z,996.67
2019-01-05T06:37:02.632Z,996.70
2019-01-05T06:38:02.773Z,996.67
2019-01-05T06:39:02.918Z,996.74
2019-01-05T06:40:03.063Z,996.63
2019-01-05T06:41:03.205Z,996.70
2019-01-05T06:42:03.352Z,996.71
2019-01-05T06:43:03.496Z,996.77
2019-01-05T06:44:03.643Z,996.73
2019-01-05T06:45:03.787Z,996.73
2019-01-05T06:46:03.932Z,996.71
2019-01-05T06:47:04.083Z,996.61
2019-01-05T06:48:04.229Z,996.59
2019-01-05T06:49:04.371Z,996.58
2019-01-05T06:50:04.517Z,996.60
2019-01-05T06:51:04.662Z,996.56
2019-01-05T06:52:04.810Z,996.60
2019-01-05T06:53:04.951Z,996.59
2019-01-05T06:54:05.098Z,996.63
2019-01-05T06:55:05.241Z,996.64
2019-01-05T06:56:05.389Z,996.68
2019-01-05T06:57:05.532Z,996.72
2019-01-05T06:58:05.676Z,996.67
2019-01-05T06:59:05.823Z,996.66
2019-01-05T07:00:05.972Z,996.65
2019-01-05T07:01:06.114Z,996.67
2019-01-05T07:02:06.258Z,996.70
2019-01-05T07:03:06.402Z,996.72
2019-01-05T07:04:06.549Z,996.68
2019-01-05T07:05:06.693Z,996.64
2019-01-05T07:06:06.840Z,996.56
2019-01-05T07:07:06.987Z,996.61
2019-01-05T07:08:07.139Z,996.59
2019-01-05T07:09:07.280Z,996.57
2019-01-05T07:10:07.427Z,996.65
2019-01-05T07:11:07.572Z,996.61
2019-01-05T07:12:07.714Z,996.60
2019-01-05T07:13:07.860Z,996.70
2019-01-05T07:14:08.005Z,996.65
2019-01-05T07:15:08.147Z,996.67
2019-01-05T07:16:08.293Z,996.64
2019-01-05T07:17:08.440Z,996.63
2019-01-05T07:18:08.584Z,996.59
2019-01-05T07:19:08.729Z,996.65
2019-01-05T07:20:08.872Z,996.66
2019-01-05T07:21:09.017Z,996.62
2019-01-05T07:22:09.164Z,996.69
2019-01-05T07:23:09.311Z,996.62
2019-01-05T07:24:09.454Z,996.63
2019-01-05T07:25:09.599Z,996.63
2019-01-05T07:26:09.749Z,996.64
2019-01-05T07:27:09.888Z,996.56
2019-01-05T07:28:10.032Z,996.63
2019-01-05T07:29:10.178Z,996.61
2019-01-05T07:30:10.326Z,996.63
2019-01-05T07:31:10.472Z,996.63
2019-01-05T07:32:10.617Z,996.67
2019-01-05T07:33:10.761Z,996.70
2019-01-05T07:34:10.904Z,996.68
2019-01-05T07:35:11.053Z,996.73
2019-01-05T07:36:11.194Z,996.68
2019-01-05T07:37:11.342Z,996.77
2019-01-05T07:38:11.490Z,996.74
2019-01-05T07:39:11.634Z,996.69
2019-01-05T07:40:11.779Z,996.72
2019-01-05T07:41:11.922Z,996.63
2019-01-05T07:42:12.068Z,996.65
2019-01-05T07:43:12.217Z,996.57
2019-01-05T07:44:12.357Z,996.51
2019-01-05T07:45:12.501Z,996.60
2019-01-05T07:46:12.647Z,996.62
2019-01-05T07:47:12.794Z,996.54
2019-01-05T07:48:12.938Z,996.56
2019-01-05T07:49:13.083Z,996.59
2019-01-05T07:50:13.229Z,996.58
2019-01-05T07:51:13.375Z,996.57
2019-01-05T07:52:13.520Z,996.63
2019-01-05T07:53:13.665Z,996.66
2019-01-05T07:54:13.813Z,996.70
2019-01-05T07:55:13.956Z,996.64
2019-01-05T07:56:14.100Z,996.59
2019-01-05T07:57:14.247Z,996.64
2019-01-05T07:58:14.392Z,996.59
2019-01-05T07:59:14.538Z,996.57
2019-01-05T08:00:14.684Z,996.57
2019-01-05T08:01:14.831Z,996.61
2019-01-05T08:02:14.978Z,996.64
2019-01-05T08:03:15.122Z,996.63
2019-01-05T08:04:15.267Z,996.56
2019-01-05T08:05:15.412Z,996.50
2019-01-05T08:06:16.035Z,996.52
2019-01-05T08:07:15.703Z,996.54
2019-01-05T08:08:15.849Z,996.51
2019-01-05T08:09:15.995Z,996.48
2019-01-05T08:10:16.142Z,996.48
2019-01-05T08:11:16.287Z,996.44
2019-01-05T08:12:16.437Z,996.47
2019-01-05T08:13:16.578Z,996.49
2019-01-05T08:14:16.726Z,996.48
2019-01-05T08:15:16.872Z,996.49
2019-01-05T08:16:17.017Z,996.50
2019-01-05T08:17:17.165Z,996.37
2019-01-05T08:18:17.306Z,996.42
2019-01-05T08:19:17.453Z,996.44
2019-01-05T08:20:17.602Z,996.46
2019-01-05T08:21:17.745Z,996.54
2019-01-05T08:22:17.891Z,996.51
2019-01-05T08:23:18.036Z,996.47
2019-01-05T08:24:18.180Z,996.48
2019-01-05T08:25:18.326Z,996.52
2019-01-05T08:26:18.471Z,996.52
2019-01-05T08:27:18.614Z,996.47
2019-01-05T08:28:18.760Z,996.53
2019-01-05T08:29:18.907Z,996.47
2019-01-05T08:30:19.055Z,996.54
2019-01-05T08:31:19.207Z,996.51
2019-01-05T08:32:19.343Z,996.52
2019-01-05T08:33:19.491Z,996.54
2019-01-05T08:34:19.637Z,996.54
2019-01-05T08:35:19.783Z,996.56
2019-01-05T08:36:19.930Z,996.63
2019-01-05T08:37:20.076Z,996.65
2019-01-05T08:38:20.225Z,996.65
2019-01-05T08:39:20.371Z,996.67
2019-01-05T08:40:20.518Z,996.70
2019-01-05T08:41:20.664Z,996.66
2019-01-05T08:42:20.809Z,996.64
2019-01-05T08:43:20.955Z,996.72
2019-01-05T08:44:21.102Z,996.69
2019-01-05T08:45:21.249Z,996.69
2019-01-05T08:46:21.401Z,996.74
2019-01-05T08:47:21.542Z,996.76
2019-01-05T08:48:21.687Z,996.71
2019-01-05T08:49:21.834Z,996.77
2019-01-05T08:50:21.977Z,996.80
2019-01-05T08:51:22.128Z,996.77
2019-01-05T08:52:22.272Z,996.75
2019-01-05T08:53:22.421Z,996.74
2019-01-05T08:54:22.566Z,996.74
2019-01-05T08:55:22.710Z,996.76
2019-01-05T08:56:22.858Z,996.73
2019-01-05T08:57:23.004Z,996.71
2019-01-05T08:58:23.152Z,996.71
2019-01-05T08:59:23.301Z,996.77
2019-01-05T09:00:23.445Z,996.77
2019-01-05T09:01:23.591Z,996.71
2019-01-05T09:02:23.818Z,996.75
2019-01-05T09:03:23.886Z,996.78
2019-01-05T09:04:24.035Z,996.78
2019-01-05T09:05:24.179Z,996.82
2019-01-05T09:06:24.326Z,996.74
2019-01-05T09:07:24.472Z,996.80
2019-01-05T09:08:24.623Z,996.81
2019-01-05T09:09:24.766Z,996.94
2019-01-05T09:10:24.914Z,996.87
2019-01-05T09:11:25.065Z,996.93
2019-01-05T09:12:25.218Z,996.97
2019-01-05T09:13:25.356Z,996.95
2019-01-05T09:14:25.503Z,996.98
2019-01-05T09:15:25.655Z,996.98
2019-01-05T09:16:25.799Z,996.98
2019-01-05T09:17:25.945Z,997.00
2019-01-05T09:18:26.094Z,996.98
2019-01-05T09:19:26.240Z,996.97
2019-01-05T09:20:26.384Z,996.98
2019-01-05T09:21:26.531Z,997.03
2019-01-05T09:22:26.676Z,996.97
2019-01-05T09:23:26.824Z,996.94
2019-01-05T09:24:26.975Z,996.95
2019-01-05T09:25:27.120Z,996.99
2019-01-05T09:26:27.267Z,997.03
2019-01-05T09:27:27.415Z,997.05
2019-01-05T09:28:27.567Z,997.06
2019-01-05T09:29:27.712Z,997.06
2019-01-05T09:30:27.857Z,997.05
2019-01-05T09:31:28.008Z,996.99
2019-01-05T09:32:28.155Z,997.02
2019-01-05T09:33:28.303Z,997.02
2019-01-05T09:34:28.451Z,997.05
2019-01-05T09:35:28.596Z,997.01
2019-01-05T09:36:28.741Z,996.99
2019-01-05T09:37:28.903Z,997.02
2019-01-05T09:38:29.039Z,996.96
2019-01-05T09:39:29.185Z,997.00
2019-01-05T09:40:29.331Z,996.94
2019-01-05T09:41:29.480Z,996.99
2019-01-05T09:42:29.626Z,996.96
2019-01-05T09:43:29.774Z,996.99
2019-01-05T09:44:29.915Z,997.01
2019-01-05T09:45:30.059Z,997.01
2019-01-05T09:46:30.208Z,997.04
2019-01-05T09:47:30.353Z,997.00
2019-01-05T09:48:30.503Z,997.01
2019-01-05T09:49:30.651Z,996.98
2019-01-05T09:50:30.797Z,996.98
2019-01-05T09:51:30.943Z,997.05
2019-01-05T09:52:31.092Z,997.02
2019-01-05T09:53:31.237Z,997.04
2019-01-05T09:54:31.384Z,997.01
2019-01-05T09:55:31.532Z,997.01
2019-01-05T09:56:31.678Z,996.98
2019-01-05T09:57:31.827Z,997.03
2019-01-05T09:58:31.975Z,996.98
2019-01-05T09:59:32.122Z,997.00
2019-01-05T10:00:32.269Z,996.99
2019-01-05T10:01:32.417Z,996.95
2019-01-05T10:02:32.564Z,996.97
2019-01-05T10:03:32.714Z,996.92
2019-01-05T10:04:32.861Z,996.92
2019-01-05T10:05:33.011Z,996.91
2019-01-05T10:06:33.154Z,996.96
2019-01-05T10:07:33.296Z,996.96
2019-01-05T10:08:33.444Z,996.94
2019-01-05T10:09:33.590Z,996.90
2019-01-05T10:10:33.737Z,996.90
2019-01-05T10:11:33.901Z,996.95
2019-01-05T10:12:34.051Z,996.96
2019-01-05T10:13:34.203Z,996.97
2019-01-05T10:14:34.347Z,996.85
2019-01-05T10:15:34.495Z,996.86
2019-01-05T10:16:34.642Z,996.85
2019-01-05T10:17:34.789Z,996.79
2019-01-05T10:18:34.937Z,996.85
2019-01-05T10:19:35.085Z,996.80
2019-01-05T10:20:35.230Z,996.77
2019-01-05T10:21:35.380Z,996.82
2019-01-05T10:22:35.526Z,996.74
2019-01-05T10:23:35.678Z,996.81
2019-01-05T10:24:35.823Z,996.80
2019-01-05T10:25:35.970Z,996.85
2019-01-05T10:26:36.169Z,996.79
2019-01-05T10:27:36.264Z,996.84
2019-01-05T10:28:36.411Z,996.79
2019-01-05T10:29:36.561Z,996.73
2019-01-05T10:30:36.709Z,996.82
2019-01-05T10:31:36.854Z,996.76
2019-01-05T10:32:37.005Z,996.71
2019-01-05T10:33:37.150Z,996.77
2019-01-05T10:34:37.296Z,996.76
2019-01-05T10:35:37.443Z,996.78
2019-01-05T10:36:37.590Z,996.80
2019-01-05T10:37:37.737Z,996.76
2019-01-05T10:38:37.887Z,996.75
2019-01-05T10:39:38.033Z,996.74
2019-01-05T10:40:38.181Z,996.63
2019-01-05T10:41:38.329Z,996.64
2019-01-05T10:42:38.474Z,996.69
2019-01-05T10:43:38.625Z,996.62
2019-01-05T10:44:38.769Z,996.63
2019-01-05T10:45:38.917Z,996.61
2019-01-05T10:46:39.066Z,996.66
2019-01-05T10:47:39.212Z,996.65
2019-01-05T10:48:39.358Z,996.71
2019-01-05T10:49:39.513Z,996.69
2019-01-05T10:50:39.660Z,996.71
2019-01-05T10:51:39.806Z,996.67
2019-01-05T10:52:39.955Z,996.69
2019-01-05T10:53:40.105Z,996.63
2019-01-05T10:54:40.253Z,996.67
2019-01-05T10:55:40.399Z,996.65
2019-01-05T10:56:40.547Z,996.63
2019-01-05T10:57:40.694Z,996.60
2019-01-05T10:58:40.839Z,996.61
2019-01-05T10:59:40.990Z,996.70
2019-01-05T11:00:41.133Z,996.66
2019-01-05T11:01:41.284Z,996.56
2019-01-05T11:02:41.429Z,996.63
2019-01-05T11:03:41.576Z,996.60
2019-01-05T11:04:41.723Z,996.56
2019-01-05T11:05:41.873Z,996.62
2019-01-05T11:06:42.017Z,996.66
2019-01-05T11:07:42.168Z,996.63
2019-01-05T11:08:42.314Z,996.69
2019-01-05T11:09:42.463Z,996.66
2019-01-05T11:10:42.613Z,996.66
2019-01-05T11:11:42.761Z,996.68
2019-01-05T11:12:42.907Z,996.68
2019-01-05T11:13:43.051Z,996.70
2019-01-05T11:14:43.200Z,996.67
2019-01-05T11:15:43.347Z,996.63
2019-01-05T11:16:43.494Z,996.70
2019-01-05T11:17:43.640Z,996.66
2019-01-05T11:18:43.787Z,996.71
2019-01-05T11:19:43.933Z,996.72
2019-01-05T11:20:44.086Z,996.69
2019-01-05T11:21:44.230Z,996.68
2019-01-05T11:22:44.375Z,996.69
2019-01-05T11:23:44.526Z,996.73
2019-01-05T11:24:44.673Z,996.67
2019-01-05T11:25:44.816Z,996.67
2019-01-05T11:26:44.961Z,996.70
2019-01-05T11:27:45.117Z,996.70
2019-01-05T11:28:45.265Z,996.67
2019-01-05T11:29:45.405Z,996.69
2019-01-05T11:30:45.550Z,996.76
2019-01-05T11:31:45.696Z,996.66
2019-01-05T11:32:45.857Z,996.65
2019-01-05T11:33:45.993Z,996.67
2019-01-05T11:34:46.145Z,996.68
2019-01-05T11:35:46.294Z,996.67
2019-01-05T11:36:46.441Z,996.64
2019-01-05T11:37:46.589Z,996.71
2019-01-05T11:38:46.741Z,996.71
2019-01-05T11:39:46.882Z,996.70
2019-01-05T11:40:47.031Z,996.68
2019-01-05T11:41:47.179Z,996.73
2019-01-05T11:42:47.326Z,996.71
2019-01-05T11:43:47.474Z,996.81
2019-01-05T11:44:47.620Z,996.68
2019-01-05T11:45:47.777Z,996.71
2019-01-05T11:46:47.917Z,996.69
2019-01-05T11:47:48.063Z,996.66
2019-01-05T11:48:48.209Z,996.62
2019-01-05T11:49:48.357Z,996.59
2019-01-05T11:50:48.507Z,996.64
2019-01-05T11:51:48.652Z,996.63
2019-01-05T11:52:48.798Z,996.66
2019-01-05T11:53:48.946Z,996.59
2019-01-05T11:54:49.100Z,996.53
2019-01-05T11:55:49.237Z,996.57
2019-01-05T11:56:49.385Z,996.51
2019-01-05T11:57:49.530Z,996.55
2019-01-05T11:58:49.687Z,996.52
2019-01-05T11:59:49.834Z,996.45
2019-01-05T12:00:49.982Z,996.52
2019-01-05T12:01:50.130Z,996.52
2019-01-05T12:02:50.281Z,996.49
2019-01-05T12:03:50.441Z,996.51
2019-01-05T12:04:50.576Z,996.51
2019-01-05T12:05:50.724Z,996.50
2019-01-05T12:06:50.888Z,996.46
2019-01-05T12:07:51.018Z,996.44
2019-01-05T12:08:51.166Z,996.46
2019-01-05T12:09:51.318Z,996.45
2019-01-05T12:10:51.473Z,996.52
2019-01-05T12:11:51.611Z,996.50
2019-01-05T12:12:51.759Z,996.46
2019-01-05T12:13:51.909Z,996.48
2019-01-05T12:14:52.052Z,996.53
2019-01-05T12:15:52.201Z,996.47
2019-01-05T12:16:52.350Z,996.48
2019-01-05T12:17:52.496Z,996.54
2019-01-05T12:18:52.643Z,996.55
2019-01-05T12:19:52.804Z,996.52
2019-01-05T12:20:52.952Z,996.55
2019-01-05T12:21:53.100Z,996.53
2019-01-05T12:22:53.245Z,996.53
2019-01-05T12:23:53.390Z,996.59
2019-01-05T12:24:53.535Z,996.51
2019-01-05T12:25:53.685Z,996.54